Aviation Digital Data Service (ADDS)

Output produced by METARs form (1952 UTC 17 November 2019)
found at http://www.aviationweather.gov/metar/data/
 
METAR text: FALE 171944Z 19011KT 5000 -RA BKN006 OVC014 17/16 Q1014 NOSIG
Conditions at: FALE (DURBAN SHAKA , ZA) observed 1944 UTC 17 November 2019
Temperature: 17.0°C (63°F)
Dewpoint: 16.0°C (61°F) [RH = 94%]
Pressure (altimeter): 29.94 inches Hg (1014.0 mb)
Winds: from the S (190 degrees) at 13 MPH (11 knots; 5.7 m/s)
Visibility: 3 miles ( 5 km)
Ceiling: 600 feet AGL
Clouds: broken clouds at 600 feet AGL
overcast cloud deck at 1400 feet AGL
Weather: -RA  (light rain)

METAR text: FALE 171919Z 19013KT 7000 -RA BKN007 OVC018 18/16 Q1013 NOSIG
Conditions at: FALE (DURBAN SHAKA , ZA) observed 1919 UTC 17 November 2019
Temperature: 18.0°C (64°F)
Dewpoint: 16.0°C (61°F) [RH = 88%]
Pressure (altimeter): 29.91 inches Hg (1013.0 mb)
Winds: from the S (190 degrees) at 15 MPH (13 knots; 6.7 m/s)
Visibility: 4 miles ( 7 km)
Ceiling: 700 feet AGL
Clouds: broken clouds at 700 feet AGL
overcast cloud deck at 1800 feet AGL
Weather: -RA  (light rain)

METAR text: FALE 171908Z 20012KT 5000 -RA BKN008 OVC020 18/16 Q1013 NOSIG
Conditions at: FALE (DURBAN SHAKA , ZA) observed 1908 UTC 17 November 2019
Temperature: 18.0°C (64°F)
Dewpoint: 16.0°C (61°F) [RH = 88%]
Pressure (altimeter): 29.91 inches Hg (1013.0 mb)
Winds: from the SSW (200 degrees) at 14 MPH (12 knots; 6.2 m/s)
Visibility: 3 miles ( 5 km)
Ceiling: 800 feet AGL
Clouds: broken clouds at 800 feet AGL
overcast cloud deck at 2000 feet AGL
Weather: -RA  (light rain)

METAR text: FALE 171901Z 19010KT 9999 -RA FEW007 BKN010 OVC020 18/16 Q1013 NOSIG
Conditions at: FALE (DURBAN SHAKA , ZA) observed 1901 UTC 17 November 2019
Temperature: 18.0°C (64°F)
Dewpoint: 16.0°C (61°F) [RH = 88%]
Pressure (altimeter): 29.91 inches Hg (1013.0 mb)
Winds: from the S (190 degrees) at 12 MPH (10 knots; 5.1 m/s)
Visibility: 6 or more miles (10+ km)
Ceiling: 1000 feet AGL
Clouds: few clouds at 700 feet AGL
broken clouds at 1000 feet AGL
overcast cloud deck at 2000 feet AGL
Weather: -RA  (light rain)

METAR text: FALE 171900Z 19010KT 9999 -RA FEW009 BKN016 OVC025 18/17 Q1013 NOSIG
Conditions at: FALE (DURBAN SHAKA , ZA) observed 1900 UTC 17 November 2019
Temperature: 18.0°C (64°F)
Dewpoint: 17.0°C (63°F) [RH = 94%]
Pressure (altimeter): 29.91 inches Hg (1013.0 mb)
Winds: from the S (190 degrees) at 12 MPH (10 knots; 5.1 m/s)
Visibility: 6 or more miles (10+ km)
Ceiling: 1600 feet AGL
Clouds: few clouds at 900 feet AGL
broken clouds at 1600 feet AGL
overcast cloud deck at 2500 feet AGL
Weather: -RA  (light rain)

METAR text: FALE 171845Z 19011KT 9999 -RA FEW009 BKN016 OVC025 18/17 Q1013 NOSIG
Conditions at: FALE (DURBAN SHAKA , ZA) observed 1845 UTC 17 November 2019
Temperature: 18.0°C (64°F)
Dewpoint: 17.0°C (63°F) [RH = 94%]
Pressure (altimeter): 29.91 inches Hg (1013.0 mb)
Winds: from the S (190 degrees) at 13 MPH (11 knots; 5.7 m/s)
Visibility: 6 or more miles (10+ km)
Ceiling: 1600 feet AGL
Clouds: few clouds at 900 feet AGL
broken clouds at 1600 feet AGL
overcast cloud deck at 2500 feet AGL
Weather: -RA  (light rain)

METAR text: FALE 171819Z 18016KT 140V200 6000 -RA BKN005 OVC016 18/17 Q1013 NOSIG
Conditions at: FALE (DURBAN SHAKA , ZA) observed 1819 UTC 17 November 2019
Temperature: 18.0°C (64°F)
Dewpoint: 17.0°C (63°F) [RH = 94%]
Pressure (altimeter): 29.91 inches Hg (1013.0 mb)
Winds: from the S (180 degrees) at 18 MPH (16 knots; 8.2 m/s)
Visibility: 4 miles ( 6 km)
Ceiling: 500 feet AGL
Clouds: broken clouds at 500 feet AGL
overcast cloud deck at 1600 feet AGL
Weather: -RA  (light rain)

METAR text: FALE 171800Z 17013G23KT 4000 -RA BKN004 OVC014 19/17 Q1012 NOSIG
Conditions at: FALE (DURBAN SHAKA , ZA) observed 1800 UTC 17 November 2019
Temperature: 19.0°C (66°F)
Dewpoint: 17.0°C (63°F) [RH = 88%]
Pressure (altimeter): 29.88 inches Hg (1012.0 mb)
Winds: from the S (170 degrees) at 15 MPH (13 knots; 6.7 m/s)
gusting to 26 MPH (23 knots; 11.8 m/s)
Visibility: 2.49 miles (4.01 km)
Ceiling: 400 feet AGL
Clouds: broken clouds at 400 feet AGL
overcast cloud deck at 1400 feet AGL
Weather: -RA  (light rain)

METAR text: FALE 171749Z 18014G24KT 4000 -RA BKN004 OVC014 19/17 Q1012 NOSIG
Conditions at: FALE (DURBAN SHAKA , ZA) observed 1749 UTC 17 November 2019
Temperature: 19.0°C (66°F)
Dewpoint: 17.0°C (63°F) [RH = 88%]
Pressure (altimeter): 29.88 inches Hg (1012.0 mb)
Winds: from the S (180 degrees) at 16 MPH (14 knots; 7.2 m/s)
gusting to 28 MPH (24 knots; 12.3 m/s)
Visibility: 2.49 miles (4.01 km)
Ceiling: 400 feet AGL
Clouds: broken clouds at 400 feet AGL
overcast cloud deck at 1400 feet AGL
Weather: -RA  (light rain)

METAR text: FALE 171745Z 18012KT 140V200 7000 -RA FEW003 BKN005 OVC018 19/17 Q1012 NOSIG
Conditions at: FALE (DURBAN SHAKA , ZA) observed 1745 UTC 17 November 2019
Temperature: 19.0°C (66°F)
Dewpoint: 17.0°C (63°F) [RH = 88%]
Pressure (altimeter): 29.88 inches Hg (1012.0 mb)
Winds: from the S (180 degrees) at 14 MPH (12 knots; 6.2 m/s)
Visibility: 4 miles ( 7 km)
Ceiling: 500 feet AGL
Clouds: few clouds at 300 feet AGL
broken clouds at 500 feet AGL
overcast cloud deck at 1800 feet AGL
Weather: -RA  (light rain)

METAR text: FALE 171724Z 18011KT 140V210 5000 -RA SCT007 OVC017 19/17 Q1011 RERA NOSIG
Conditions at: FALE (DURBAN SHAKA , ZA) observed 1724 UTC 17 November 2019
Temperature: 19.0°C (66°F)
Dewpoint: 17.0°C (63°F) [RH = 88%]
Pressure (altimeter): 29.85 inches Hg (1011.0 mb)
Winds: from the S (180 degrees) at 13 MPH (11 knots; 5.7 m/s)
Visibility: 3 miles ( 5 km)
Ceiling: 1700 feet AGL
Clouds: scattered clouds at 700 feet AGL
overcast cloud deck at 1700 feet AGL
Weather: -RA  (light rain)

METAR text: FALE 171707Z 21005KT 3500 RA FEW005 BKN021 20/18 Q1011 NOSIG
Conditions at: FALE (DURBAN SHAKA , ZA) observed 1707 UTC 17 November 2019
Temperature: 20.0°C (68°F)
Dewpoint: 18.0°C (64°F) [RH = 88%]
Pressure (altimeter): 29.85 inches Hg (1011.0 mb)
Winds: from the SSW (210 degrees) at 6 MPH (5 knots; 2.6 m/s)
Visibility: 2.17 miles (3.49 km)
Ceiling: 2100 feet AGL
Clouds: few clouds at 500 feet AGL
broken clouds at 2100 feet AGL
Weather: RA  (moderate rain)

METAR text: FALE 171700Z 21003KT 180V240 9999 SCT022 20/18 Q1010 NOSIG
Conditions at: FALE (DURBAN SHAKA , ZA) observed 1700 UTC 17 November 2019
Temperature: 20.0°C (68°F)
Dewpoint: 18.0°C (64°F) [RH = 88%]
Pressure (altimeter): 29.82 inches Hg (1010.0 mb)
Winds: from the SSW (210 degrees) at 3 MPH (3 knots; 1.5 m/s)
Visibility: 6 or more miles (10+ km)
Ceiling: at least 12,000 feet AGL
Clouds: scattered clouds at 2200 feet AGL
Weather: no significant weather observed at this time

METAR text: FALE 171630Z 18004KT 9999 SCT022 19/18 Q1009 NOSIG
Conditions at: FALE (DURBAN SHAKA , ZA) observed 1630 UTC 17 November 2019
Temperature: 19.0°C (66°F)
Dewpoint: 18.0°C (64°F) [RH = 94%]
Pressure (altimeter): 29.79 inches Hg (1009.0 mb)
Winds: from the S (180 degrees) at 5 MPH (4 knots; 2.1 m/s)
Visibility: 6 or more miles (10+ km)
Ceiling: at least 12,000 feet AGL
Clouds: scattered clouds at 2200 feet AGL
Weather: no significant weather observed at this time

METAR text: FALE 171600Z 18004KT 9999 FEW033 OVC049 19/18 Q1009 RERA NOSIG
Conditions at: FALE (DURBAN SHAKA , ZA) observed 1600 UTC 17 November 2019
Temperature: 19.0°C (66°F)
Dewpoint: 18.0°C (64°F) [RH = 94%]
Pressure (altimeter): 29.79 inches Hg (1009.0 mb)
Winds: from the S (180 degrees) at 5 MPH (4 knots; 2.1 m/s)
Visibility: 6 or more miles (10+ km)
Ceiling: 4900 feet AGL
Clouds: few clouds at 3300 feet AGL
overcast cloud deck at 4900 feet AGL
Weather: no significant weather observed at this time

METAR text: FALE 171544Z 18004KT 9999 -RA FEW033 OVC049 19/18 Q1009 RETSRA NOSIG
Conditions at: FALE (DURBAN SHAKA , ZA) observed 1544 UTC 17 November 2019
Temperature: 19.0°C (66°F)
Dewpoint: 18.0°C (64°F) [RH = 94%]
Pressure (altimeter): 29.79 inches Hg (1009.0 mb)
Winds: from the S (180 degrees) at 5 MPH (4 knots; 2.1 m/s)
Visibility: 6 or more miles (10+ km)
Ceiling: 4900 feet AGL
Clouds: few clouds at 3300 feet AGL
overcast cloud deck at 4900 feet AGL
Weather: -RA  (light rain)

METAR text: FALE 171527Z 19006KT 150V210 2500 TSRA BKN032 OVC038 FEW040CB 20/18 Q1009 NOSIG
Conditions at: FALE (DURBAN SHAKA , ZA) observed 1527 UTC 17 November 2019
Temperature: 20.0°C (68°F)
Dewpoint: 18.0°C (64°F) [RH = 88%]
Pressure (altimeter): 29.79 inches Hg (1009.0 mb)
Winds: from the S (190 degrees) at 7 MPH (6 knots; 3.1 m/s)
Visibility: 1.55 miles (2.49 km)
Ceiling: 3200 feet AGL
Clouds: broken clouds at 3200 feet AGL
overcast cloud deck at 3800 feet AGL
few clouds at 4000 feet AGL
Weather: TSRA  (rain associated with thunderstorm(s))

METAR text: FALE 171518Z 19006KT 5000 -TSRA BKN032 OVC038 FEW040CB 20/18 Q1009 RETSRA NOSIG
Conditions at: FALE (DURBAN SHAKA , ZA) observed 1518 UTC 17 November 2019
Temperature: 20.0°C (68°F)
Dewpoint: 18.0°C (64°F) [RH = 88%]
Pressure (altimeter): 29.79 inches Hg (1009.0 mb)
Winds: from the S (190 degrees) at 7 MPH (6 knots; 3.1 m/s)
Visibility: 3 miles ( 5 km)
Ceiling: 3200 feet AGL
Clouds: broken clouds at 3200 feet AGL
overcast cloud deck at 3800 feet AGL
few clouds at 4000 feet AGL
Weather: -TSRA  (light rain associated with thunderstorm(s))

METAR text: FALE 171515Z 20006KT 5000 -TSRA BKN032 OVC038 FEW040CB 20/18 Q1009 RERA NOSIG
Conditions at: FALE (DURBAN SHAKA , ZA) observed 1515 UTC 17 November 2019
Temperature: 20.0°C (68°F)
Dewpoint: 18.0°C (64°F) [RH = 88%]
Pressure (altimeter): 29.79 inches Hg (1009.0 mb)
Winds: from the SSW (200 degrees) at 7 MPH (6 knots; 3.1 m/s)
Visibility: 3 miles ( 5 km)
Ceiling: 3200 feet AGL
Clouds: broken clouds at 3200 feet AGL
overcast cloud deck at 3800 feet AGL
few clouds at 4000 feet AGL
Weather: -TSRA  (light rain associated with thunderstorm(s))

METAR text: FALE 171500Z 18006KT 120V250 2000 TSRA BKN032 OVC038 FEW040CB 20/18 Q1008 NOSIG
Conditions at: FALE (DURBAN SHAKA , ZA) observed 1500 UTC 17 November 2019
Temperature: 20.0°C (68°F)
Dewpoint: 18.0°C (64°F) [RH = 88%]
Pressure (altimeter): 29.76 inches Hg (1008.0 mb)
Winds: from the S (180 degrees) at 7 MPH (6 knots; 3.1 m/s)
Visibility: 1.24 miles (2.00 km)
Ceiling: 3200 feet AGL
Clouds: broken clouds at 3200 feet AGL
overcast cloud deck at 3800 feet AGL
few clouds at 4000 feet AGL
Weather: TSRA  (rain associated with thunderstorm(s))

METAR text: FALE 171450Z 19006KT 120V260 2000 TSRA OVC032 FEW040CB 20/18 Q1008 RERA NOSIG
Conditions at: FALE (DURBAN SHAKA , ZA) observed 1450 UTC 17 November 2019
Temperature: 20.0°C (68°F)
Dewpoint: 18.0°C (64°F) [RH = 88%]
Pressure (altimeter): 29.76 inches Hg (1008.0 mb)
Winds: from the S (190 degrees) at 7 MPH (6 knots; 3.1 m/s)
Visibility: 1.24 miles (2.00 km)
Ceiling: 3200 feet AGL
Clouds: overcast cloud deck at 3200 feet AGL
few clouds at 4000 feet AGL
Weather: TSRA  (rain associated with thunderstorm(s))

METAR text: FALE 171400Z 17004KT 130V210 9999 -RA OVC025 20/18 Q1007 NOSIG
Conditions at: FALE (DURBAN SHAKA , ZA) observed 1400 UTC 17 November 2019
Temperature: 20.0°C (68°F)
Dewpoint: 18.0°C (64°F) [RH = 88%]
Pressure (altimeter): 29.73 inches Hg (1007.0 mb)
Winds: from the S (170 degrees) at 5 MPH (4 knots; 2.1 m/s)
Visibility: 6 or more miles (10+ km)
Ceiling: 2500 feet AGL
Clouds: overcast cloud deck at 2500 feet AGL
Weather: -RA  (light rain)

METAR text: FALE 171300Z 18004KT 130V200 9999 SCT020 BKN030 20/18 Q1007 RERA NOSIG
Conditions at: FALE (DURBAN SHAKA , ZA) observed 1300 UTC 17 November 2019
Temperature: 20.0°C (68°F)
Dewpoint: 18.0°C (64°F) [RH = 88%]
Pressure (altimeter): 29.73 inches Hg (1007.0 mb)
Winds: from the S (180 degrees) at 5 MPH (4 knots; 2.1 m/s)
Visibility: 6 or more miles (10+ km)
Ceiling: 3000 feet AGL
Clouds: scattered clouds at 2000 feet AGL
broken clouds at 3000 feet AGL
Weather: no significant weather observed at this time

METAR text: FALE 171247Z 16004KT 120V190 6000 -RA SCT020 BKN030 20/18 Q1006 NOSIG
Conditions at: FALE (DURBAN SHAKA , ZA) observed 1247 UTC 17 November 2019
Temperature: 20.0°C (68°F)
Dewpoint: 18.0°C (64°F) [RH = 88%]
Pressure (altimeter): 29.70 inches Hg (1006.0 mb)
Winds: from the SSE (160 degrees) at 5 MPH (4 knots; 2.1 m/s)
Visibility: 4 miles ( 6 km)
Ceiling: 3000 feet AGL
Clouds: scattered clouds at 2000 feet AGL
broken clouds at 3000 feet AGL
Weather: -RA  (light rain)

METAR text: FALE 171227Z 15006KT 3000 -RA FEW014 OVC026 21/18 Q1006 NOSIG
Conditions at: FALE (DURBAN SHAKA , ZA) observed 1227 UTC 17 November 2019
Temperature: 21.0°C (70°F)
Dewpoint: 18.0°C (64°F) [RH = 83%]
Pressure (altimeter): 29.70 inches Hg (1006.0 mb)
Winds: from the SSE (150 degrees) at 7 MPH (6 knots; 3.1 m/s)
Visibility: 1.86 miles (2.99 km)
Ceiling: 2600 feet AGL
Clouds: few clouds at 1400 feet AGL
overcast cloud deck at 2600 feet AGL
Weather: -RA  (light rain)

METAR text: FALE 171200Z 12004KT 080V160 9999 FEW018 BKN030 21/17 Q1006 NOSIG
Conditions at: FALE (DURBAN SHAKA , ZA) observed 1200 UTC 17 November 2019
Temperature: 21.0°C (70°F)
Dewpoint: 17.0°C (63°F) [RH = 78%]
Pressure (altimeter): 29.70 inches Hg (1006.0 mb)
Winds: from the ESE (120 degrees) at 5 MPH (4 knots; 2.1 m/s)
Visibility: 6 or more miles (10+ km)
Ceiling: 3000 feet AGL
Clouds: few clouds at 1800 feet AGL
broken clouds at 3000 feet AGL
Weather: no significant weather observed at this time

METAR text: FALE 171100Z 08004KT 030V130 9999 FEW018 BKN030 22/17 Q1006 NOSIG
Conditions at: FALE (DURBAN SHAKA , ZA) observed 1100 UTC 17 November 2019
Temperature: 22.0°C (72°F)
Dewpoint: 17.0°C (63°F) [RH = 73%]
Pressure (altimeter): 29.70 inches Hg (1006.0 mb)
Winds: from the E (80 degrees) at 5 MPH (4 knots; 2.1 m/s)
Visibility: 6 or more miles (10+ km)
Ceiling: 3000 feet AGL
Clouds: few clouds at 1800 feet AGL
broken clouds at 3000 feet AGL
Weather: no significant weather observed at this time

METAR text: FALE 171000Z 05007KT 9999 FEW018 BKN030 21/16 Q1006 NOSIG
Conditions at: FALE (DURBAN SHAKA , ZA) observed 1000 UTC 17 November 2019
Temperature: 21.0°C (70°F)
Dewpoint: 16.0°C (61°F) [RH = 73%]
Pressure (altimeter): 29.70 inches Hg (1006.0 mb)
Winds: from the NE (50 degrees) at 8 MPH (7 knots; 3.6 m/s)
Visibility: 6 or more miles (10+ km)
Ceiling: 3000 feet AGL
Clouds: few clouds at 1800 feet AGL
broken clouds at 3000 feet AGL
Weather: no significant weather observed at this time

METAR text: FALE 170900Z 06008KT 9999 SCT015 BKN030 22/17 Q1006 NOSIG
Conditions at: FALE (DURBAN SHAKA , ZA) observed 0900 UTC 17 November 2019
Temperature: 22.0°C (72°F)
Dewpoint: 17.0°C (63°F) [RH = 73%]
Pressure (altimeter): 29.70 inches Hg (1006.0 mb)
Winds: from the ENE (60 degrees) at 9 MPH (8 knots; 4.1 m/s)
Visibility: 6 or more miles (10+ km)
Ceiling: 3000 feet AGL
Clouds: scattered clouds at 1500 feet AGL
broken clouds at 3000 feet AGL
Weather: no significant weather observed at this time

METAR text: FALE 170800Z 06008KT 9999 FEW015 BKN018 22/16 Q1007 NOSIG
Conditions at: FALE (DURBAN SHAKA , ZA) observed 0800 UTC 17 November 2019
Temperature: 22.0°C (72°F)
Dewpoint: 16.0°C (61°F) [RH = 69%]
Pressure (altimeter): 29.73 inches Hg (1007.0 mb)
Winds: from the ENE (60 degrees) at 9 MPH (8 knots; 4.1 m/s)
Visibility: 6 or more miles (10+ km)
Ceiling: 1800 feet AGL
Clouds: few clouds at 1500 feet AGL
broken clouds at 1800 feet AGL
Weather: no significant weather observed at this time

METAR text: FALE 170700Z 05009KT 010V090 9999 SCT018 23/17 Q1006 NOSIG
Conditions at: FALE (DURBAN SHAKA , ZA) observed 0700 UTC 17 November 2019
Temperature: 23.0°C (73°F)
Dewpoint: 17.0°C (63°F) [RH = 69%]
Pressure (altimeter): 29.70 inches Hg (1006.0 mb)
Winds: from the NE (50 degrees) at 10 MPH (9 knots; 4.6 m/s)
Visibility: 6 or more miles (10+ km)
Ceiling: at least 12,000 feet AGL
Clouds: scattered clouds at 1800 feet AGL
Weather: no significant weather observed at this time

METAR text: FALE 170600Z 03009KT 9999 SCT018 22/16 Q1007 NOSIG
Conditions at: FALE (DURBAN SHAKA , ZA) observed 0600 UTC 17 November 2019
Temperature: 22.0°C (72°F)
Dewpoint: 16.0°C (61°F) [RH = 69%]
Pressure (altimeter): 29.73 inches Hg (1007.0 mb)
Winds: from the NNE (30 degrees) at 10 MPH (9 knots; 4.6 m/s)
Visibility: 6 or more miles (10+ km)
Ceiling: at least 12,000 feet AGL
Clouds: scattered clouds at 1800 feet AGL
Weather: no significant weather observed at this time

METAR text: FALE 170500Z 02005KT 9999 FEW030 21/17 Q1007 NOSIG
Conditions at: FALE (DURBAN SHAKA , ZA) observed 0500 UTC 17 November 2019
Temperature: 21.0°C (70°F)
Dewpoint: 17.0°C (63°F) [RH = 78%]
Pressure (altimeter): 29.73 inches Hg (1007.0 mb)
Winds: from the NNE (20 degrees) at 6 MPH (5 knots; 2.6 m/s)
Visibility: 6 or more miles (10+ km)
Ceiling: at least 12,000 feet AGL
Clouds: few clouds at 3000 feet AGL
Weather: no significant weather observed at this time

METAR text: FALE 170400Z 01004KT CAVOK 19/17 Q1007 NOSIG
Conditions at: FALE (DURBAN SHAKA , ZA) observed 0400 UTC 17 November 2019
Temperature: 19.0°C (66°F)
Dewpoint: 17.0°C (63°F) [RH = 88%]
Pressure (altimeter): 29.73 inches Hg (1007.0 mb)
Winds: from the N (10 degrees) at 5 MPH (4 knots; 2.1 m/s)
Visibility: 6 or more miles (10+ km)
Ceiling: ceiling and visibility are OK
Clouds: unknown
Weather: no significant weather observed at this time

METAR text: FALE 170300Z 35003KT 310V020 9999 FEW035 18/17 Q1006 NOSIG
Conditions at: FALE (DURBAN SHAKA , ZA) observed 0300 UTC 17 November 2019
Temperature: 18.0°C (64°F)
Dewpoint: 17.0°C (63°F) [RH = 94%]
Pressure (altimeter): 29.70 inches Hg (1006.0 mb)
Winds: from the N (350 degrees) at 3 MPH (3 knots; 1.5 m/s)
Visibility: 6 or more miles (10+ km)
Ceiling: at least 12,000 feet AGL
Clouds: few clouds at 3500 feet AGL
Weather: no significant weather observed at this time

METAR text: FALE 170200Z VRB01KT 9999 FEW029 OVC039 19/17 Q1007 NOSIG
Conditions at: FALE (DURBAN SHAKA , ZA) observed 0200 UTC 17 November 2019
Temperature: 19.0°C (66°F)
Dewpoint: 17.0°C (63°F) [RH = 88%]
Pressure (altimeter): 29.73 inches Hg (1007.0 mb)
Winds: variable direction winds at 1 MPH (1 knots; 0.5 m/s)
Visibility: 6 or more miles (10+ km)
Ceiling: 3900 feet AGL
Clouds: few clouds at 2900 feet AGL
overcast cloud deck at 3900 feet AGL
Weather: no significant weather observed at this time

METAR text: FALE 170100Z VRB01KT 9999 FEW030 OVC038 19/17 Q1007 NOSIG
Conditions at: FALE (DURBAN SHAKA , ZA) observed 0100 UTC 17 November 2019
Temperature: 19.0°C (66°F)
Dewpoint: 17.0°C (63°F) [RH = 88%]
Pressure (altimeter): 29.73 inches Hg (1007.0 mb)
Winds: variable direction winds at 1 MPH (1 knots; 0.5 m/s)
Visibility: 6 or more miles (10+ km)
Ceiling: 3800 feet AGL
Clouds: few clouds at 3000 feet AGL
overcast cloud deck at 3800 feet AGL
Weather: no significant weather observed at this time

METAR text: FALE 170000Z VRB01KT 9999 OVC033 19/17 Q1008 NOSIG
Conditions at: FALE (DURBAN SHAKA , ZA) observed 0000 UTC 17 November 2019
Temperature: 19.0°C (66°F)
Dewpoint: 17.0°C (63°F) [RH = 88%]
Pressure (altimeter): 29.76 inches Hg (1008.0 mb)
Winds: variable direction winds at 1 MPH (1 knots; 0.5 m/s)
Visibility: 6 or more miles (10+ km)
Ceiling: 3300 feet AGL
Clouds: overcast cloud deck at 3300 feet AGL
Weather: no significant weather observed at this time

METAR text: FALE 162300Z 32003KT 9999 OVC031 20/17 Q1009 NOSIG
Conditions at: FALE (DURBAN SHAKA , ZA) observed 2300 UTC 16 November 2019
Temperature: 20.0°C (68°F)
Dewpoint: 17.0°C (63°F) [RH = 83%]
Pressure (altimeter): 29.79 inches Hg (1009.0 mb)
Winds: from the NW (320 degrees) at 3 MPH (3 knots; 1.5 m/s)
Visibility: 6 or more miles (10+ km)
Ceiling: 3100 feet AGL
Clouds: overcast cloud deck at 3100 feet AGL
Weather: no significant weather observed at this time

METAR text: FALE 162200Z 24003KT 9999 OVC030 20/17 Q1010 NOSIG
Conditions at: FALE (DURBAN SHAKA , ZA) observed 2200 UTC 16 November 2019
Temperature: 20.0°C (68°F)
Dewpoint: 17.0°C (63°F) [RH = 83%]
Pressure (altimeter): 29.82 inches Hg (1010.0 mb)
Winds: from the WSW (240 degrees) at 3 MPH (3 knots; 1.5 m/s)
Visibility: 6 or more miles (10+ km)
Ceiling: 3000 feet AGL
Clouds: overcast cloud deck at 3000 feet AGL
Weather: no significant weather observed at this time

METAR text: FALE 162100Z 20005KT 9999 OVC027 20/17 Q1010 NOSIG
Conditions at: FALE (DURBAN SHAKA , ZA) observed 2100 UTC 16 November 2019
Temperature: 20.0°C (68°F)
Dewpoint: 17.0°C (63°F) [RH = 83%]
Pressure (altimeter): 29.82 inches Hg (1010.0 mb)
Winds: from the SSW (200 degrees) at 6 MPH (5 knots; 2.6 m/s)
Visibility: 6 or more miles (10+ km)
Ceiling: 2700 feet AGL
Clouds: overcast cloud deck at 2700 feet AGL
Weather: no significant weather observed at this time

METAR text: FALE 162000Z 15003KT 9999 BKN031 20/16 Q1011 NOSIG
Conditions at: FALE (DURBAN SHAKA , ZA) observed 2000 UTC 16 November 2019
Temperature: 20.0°C (68°F)
Dewpoint: 16.0°C (61°F) [RH = 78%]
Pressure (altimeter): 29.85 inches Hg (1011.0 mb)
Winds: from the SSE (150 degrees) at 3 MPH (3 knots; 1.5 m/s)
Visibility: 6 or more miles (10+ km)
Ceiling: 3100 feet AGL
Clouds: broken clouds at 3100 feet AGL
Weather: no significant weather observed at this time

METAR text: FALE 161900Z 17003KT 9999 FEW020 BKN033 20/17 Q1011 NOSIG
Conditions at: FALE (DURBAN SHAKA , ZA) observed 1900 UTC 16 November 2019
Temperature: 20.0°C (68°F)
Dewpoint: 17.0°C (63°F) [RH = 83%]
Pressure (altimeter): 29.85 inches Hg (1011.0 mb)
Winds: from the S (170 degrees) at 3 MPH (3 knots; 1.5 m/s)
Visibility: 6 or more miles (10+ km)
Ceiling: 3300 feet AGL
Clouds: few clouds at 2000 feet AGL
broken clouds at 3300 feet AGL
Weather: no significant weather observed at this time

METAR text: FALE 161800Z 16004KT 9999 SCT018 BKN030 20/17 Q1010 NOSIG
Conditions at: FALE (DURBAN SHAKA , ZA) observed 1800 UTC 16 November 2019
Temperature: 20.0°C (68°F)
Dewpoint: 17.0°C (63°F) [RH = 83%]
Pressure (altimeter): 29.82 inches Hg (1010.0 mb)
Winds: from the SSE (160 degrees) at 5 MPH (4 knots; 2.1 m/s)
Visibility: 6 or more miles (10+ km)
Ceiling: 3000 feet AGL
Clouds: scattered clouds at 1800 feet AGL
broken clouds at 3000 feet AGL
Weather: no significant weather observed at this time

METAR text: FALE 161700Z 16004KT 9999 FEW030 20/16 Q1009 NOSIG
Conditions at: FALE (DURBAN SHAKA , ZA) observed 1700 UTC 16 November 2019
Temperature: 20.0°C (68°F)
Dewpoint: 16.0°C (61°F) [RH = 78%]
Pressure (altimeter): 29.79 inches Hg (1009.0 mb)
Winds: from the SSE (160 degrees) at 5 MPH (4 knots; 2.1 m/s)
Visibility: 6 or more miles (10+ km)
Ceiling: at least 12,000 feet AGL
Clouds: few clouds at 3000 feet AGL
Weather: no significant weather observed at this time

METAR text: FALE 161600Z 15005KT 100V180 9999 FEW025 21/17 Q1009 NOSIG
Conditions at: FALE (DURBAN SHAKA , ZA) observed 1600 UTC 16 November 2019
Temperature: 21.0°C (70°F)
Dewpoint: 17.0°C (63°F) [RH = 78%]
Pressure (altimeter): 29.79 inches Hg (1009.0 mb)
Winds: from the SSE (150 degrees) at 6 MPH (5 knots; 2.6 m/s)
Visibility: 6 or more miles (10+ km)
Ceiling: at least 12,000 feet AGL
Clouds: few clouds at 2500 feet AGL
Weather: no significant weather observed at this time

METAR text: FALE 161500Z 15007KT 120V180 9999 SCT020 22/17 Q1009 NOSIG
Conditions at: FALE (DURBAN SHAKA , ZA) observed 1500 UTC 16 November 2019
Temperature: 22.0°C (72°F)
Dewpoint: 17.0°C (63°F) [RH = 73%]
Pressure (altimeter): 29.79 inches Hg (1009.0 mb)
Winds: from the SSE (150 degrees) at 8 MPH (7 knots; 3.6 m/s)
Visibility: 6 or more miles (10+ km)
Ceiling: at least 12,000 feet AGL
Clouds: scattered clouds at 2000 feet AGL
Weather: no significant weather observed at this time

METAR text: FALE 161400Z 16008KT 110V190 9999 FEW020 23/17 Q1009 NOSIG
Conditions at: FALE (DURBAN SHAKA , ZA) observed 1400 UTC 16 November 2019
Temperature: 23.0°C (73°F)
Dewpoint: 17.0°C (63°F) [RH = 69%]
Pressure (altimeter): 29.79 inches Hg (1009.0 mb)
Winds: from the SSE (160 degrees) at 9 MPH (8 knots; 4.1 m/s)
Visibility: 6 or more miles (10+ km)
Ceiling: at least 12,000 feet AGL
Clouds: few clouds at 2000 feet AGL
Weather: no significant weather observed at this time

METAR text: FALE 161300Z 15009KT 100V180 9999 FEW025 23/16 Q1009 NOSIG
Conditions at: FALE (DURBAN SHAKA , ZA) observed 1300 UTC 16 November 2019
Temperature: 23.0°C (73°F)
Dewpoint: 16.0°C (61°F) [RH = 65%]
Pressure (altimeter): 29.79 inches Hg (1009.0 mb)
Winds: from the SSE (150 degrees) at 10 MPH (9 knots; 4.6 m/s)
Visibility: 6 or more miles (10+ km)
Ceiling: at least 12,000 feet AGL
Clouds: few clouds at 2500 feet AGL
Weather: no significant weather observed at this time

METAR text: FALE 161200Z 16008KT 120V190 9999 SCT025 23/17 Q1009 NOSIG
Conditions at: FALE (DURBAN SHAKA , ZA) observed 1200 UTC 16 November 2019
Temperature: 23.0°C (73°F)
Dewpoint: 17.0°C (63°F) [RH = 69%]
Pressure (altimeter): 29.79 inches Hg (1009.0 mb)
Winds: from the SSE (160 degrees) at 9 MPH (8 knots; 4.1 m/s)
Visibility: 6 or more miles (10+ km)
Ceiling: at least 12,000 feet AGL
Clouds: scattered clouds at 2500 feet AGL
Weather: no significant weather observed at this time

METAR text: FALE 161135Z 15007KT 090V190 9999 FEW020 BKN035 25/18 Q1009 NOSIG
Conditions at: FALE (DURBAN SHAKA , ZA) observed 1135 UTC 16 November 2019
Temperature: 25.0°C (77°F)
Dewpoint: 18.0°C (64°F) [RH = 65%]
Pressure (altimeter): 29.79 inches Hg (1009.0 mb)
Winds: from the SSE (150 degrees) at 8 MPH (7 knots; 3.6 m/s)
Visibility: 6 or more miles (10+ km)
Ceiling: 3500 feet AGL
Clouds: few clouds at 2000 feet AGL
broken clouds at 3500 feet AGL
Weather: no significant weather observed at this time

METAR text: FALE 161100Z 14010KT 110V170 9999 SCT018 BKN025 23/17 Q1010 NOSIG
Conditions at: FALE (DURBAN SHAKA , ZA) observed 1100 UTC 16 November 2019
Temperature: 23.0°C (73°F)
Dewpoint: 17.0°C (63°F) [RH = 69%]
Pressure (altimeter): 29.82 inches Hg (1010.0 mb)
Winds: from the SE (140 degrees) at 12 MPH (10 knots; 5.1 m/s)
Visibility: 6 or more miles (10+ km)
Ceiling: 2500 feet AGL
Clouds: scattered clouds at 1800 feet AGL
broken clouds at 2500 feet AGL
Weather: no significant weather observed at this time

METAR text: FALE 161000Z 15009KT 110V180 9999 FEW021 SCT032 23/18 Q1010 NOSIG
Conditions at: FALE (DURBAN SHAKA , ZA) observed 1000 UTC 16 November 2019
Temperature: 23.0°C (73°F)
Dewpoint: 18.0°C (64°F) [RH = 73%]
Pressure (altimeter): 29.82 inches Hg (1010.0 mb)
Winds: from the SSE (150 degrees) at 10 MPH (9 knots; 4.6 m/s)
Visibility: 6 or more miles (10+ km)
Ceiling: at least 12,000 feet AGL
Clouds: few clouds at 2100 feet AGL
scattered clouds at 3200 feet AGL
Weather: no significant weather observed at this time

METAR text: FALE 160900Z 15007KT 120V180 9999 FEW020 BKN026 22/17 Q1010 NOSIG
Conditions at: FALE (DURBAN SHAKA , ZA) observed 0900 UTC 16 November 2019
Temperature: 22.0°C (72°F)
Dewpoint: 17.0°C (63°F) [RH = 73%]
Pressure (altimeter): 29.82 inches Hg (1010.0 mb)
Winds: from the SSE (150 degrees) at 8 MPH (7 knots; 3.6 m/s)
Visibility: 6 or more miles (10+ km)
Ceiling: 2600 feet AGL
Clouds: few clouds at 2000 feet AGL
broken clouds at 2600 feet AGL
Weather: no significant weather observed at this time

METAR text: FALE 160800Z 15008KT 120V190 9999 FEW018 BKN026 OVC033 21/18 Q1011 NOSIG
Conditions at: FALE (DURBAN SHAKA , ZA) observed 0800 UTC 16 November 2019
Temperature: 21.0°C (70°F)
Dewpoint: 18.0°C (64°F) [RH = 83%]
Pressure (altimeter): 29.85 inches Hg (1011.0 mb)
Winds: from the SSE (150 degrees) at 9 MPH (8 knots; 4.1 m/s)
Visibility: 6 or more miles (10+ km)
Ceiling: 2600 feet AGL
Clouds: few clouds at 1800 feet AGL
broken clouds at 2600 feet AGL
overcast cloud deck at 3300 feet AGL
Weather: no significant weather observed at this time

Forecast for: FALE (DURBAN SHAKA , ZA)
Text: TAF FALE 171600Z 1718/1824 19015G25KT 9999 SCT030 OVC040 TX23/1812Z TN16/1803Z
Forecast period: 1800 to 2100 UTC 17 November 2019
Forecast type: FROM: standard forecast or significant change
Winds: from the S (190 degrees) at 17 MPH (15 knots; 7.7 m/s)
gusting to 29 MPH (25 knots; 12.9 m/s)
Visibility: 6 or more miles 10+ km)
Ceiling: 4000 feet AGL
Clouds: scattered clouds at 3000 feet AGL
overcast cloud deck at 4000 feet AGL
Weather: no significant weather forecast for this period
Text: PROB30
Forecast period: 1900 UTC 17 November 2019 to 0100 UTC 18 November 2019
Forecast type: TEMPORARY: The following changes expected for less than half the time period
Visibility: 2.49 miles (4.01 km)
Ceiling: 1000 feet AGL
Clouds: broken clouds at 1000 feet AGL
few clouds at 2500 feet AGL
overcast cloud deck at 3000 feet AGL
Weather: SHRA  (rain showers)
Text: TEMPO 1719/1801 4000 SHRA BKN010 FEW025TCU OVC030
Forecast period: 2100 UTC 17 November 2019 to 1400 UTC 18 November 2019
Forecast type: BECOMING: Conditions expected to become as follows by 2300 UTC 17 November 2019
Winds: from the SW (220 degrees) at 17 MPH (15 knots; 7.7 m/s)
Visibility: 6 or more miles 10+ km)
Ceiling: 4000 feet AGL
Clouds: scattered clouds at 3000 feet AGL
overcast cloud deck at 4000 feet AGL
Weather: no significant weather forecast for this period
Text: BECMG 1721/1723 22015KT
Forecast period: 1400 to 1600 UTC 18 November 2019
Forecast type: FROM: standard forecast or significant change
Winds: from the E (100 degrees) at 12 MPH (10 knots; 5.1 m/s)
Visibility: 6 or more miles 10+ km)
Ceiling: 2500 feet AGL
Clouds: broken clouds at 2500 feet AGL
overcast cloud deck at 4000 feet AGL
Weather: no significant weather forecast for this period
Text: FM181400 10010KT 9999 BKN025 OVC040
Forecast period: 1600 UTC 18 November 2019 to 0000 UTC 19 November 2019
Forecast type: BECOMING: Conditions expected to become as follows by 1800 UTC 18 November 2019
Winds: from the NNE (20 degrees) at 14 MPH (12 knots; 6.2 m/s)
Visibility: 6 or more miles 10+ km)
Ceiling: 2500 feet AGL
Clouds: broken clouds at 2500 feet AGL
overcast cloud deck at 4000 feet AGL
Weather: no significant weather forecast for this period